Bridgewater, Massachusetts
Current Conditions -  °F | °C
As of 12:07 PM on Thursday 27 Nov 2014 (Local Time) from KTAN Reporting Station
Broken Clouds Broken Clouds  
Wind Chill: 36°   Ceiling: 2100
Heat Index: 41°   Visibility: 10mi
Dew Point: 31°   Wind: 7mph
Humidity: 67%   Direction: NA
Pressure: 29.93"   Gusts: NA
Location:  41.99°N, 70.98°W
Report Text: KTAN 271707Z AUTO VRB06KT 10SM BKN021 05/M01 A2993 RMK AO2 T00501006
Loading
Personal Weather Stations






























Interactive Weather Map New forecast layout! Learn more

10-Day Weather Forecast

Advertisements
Track Severe Weather on mobile